Terminal Aerodrome Forecast
Issued by NWS Twin Cities, MN

Home | Current Version | Previous Version | Text Only | Print | Product List | Glossary On
Versions: 1 2 3 4 5 6 7 8 9 10 11 12 13 14 15 16 17 18
000
FTUS43 KMPX 220800 AAA
TAFEAU
TAF AMD
KEAU 220806Z 2208/2306 14011KT 3SM -DZ BR OVC007
     FM221800 12011KT 5SM -RA BR OVC015
     FM230300 10011KT 3SM -RASN OVC007
     FM230500 08009KT 3/4SM -SN VV003=

USA.gov is the U.S. government's official web portal to all federal, state and local government web resources and services.